Time;durP1;ratioP1;P1;durP2;ratioP2;P2;SDS_P1;SDS_P2;PMS_P1;PMS_P2;Temp;Humidity;BMP_temperature;BMP_pressure;BME280_temperature;BME280_humidity;BME280_pressure;Samples;Min_cycle;Max_cycle;Signal;HPM_P1;HPM_P2
2022/09/01 00:01:56;;;;;;;6.32;2.30;;;;;;;15.04;64.95;102073.41;6185191;23;20008;-77
2022/09/01 00:04:27;;;;;;;4.00;2.15;;;;;;;15.10;64.73;102073.88;6184720;23;20084;-78
2022/09/01 00:06:53;;;;;;;6.22;2.85;;;;;;;15.02;64.69;102055.31;6185199;23;20001;-77
2022/09/01 00:09:20;;;;;;;5.70;2.20;;;;;;;15.17;65.02;102061.34;6185119;23;20435;-76
2022/09/01 00:11:51;;;;;;;6.95;2.15;;;;;;;15.18;65.18;102071.66;6185211;23;20441;-76
2022/09/01 00:14:20;;;;;;;6.50;2.90;;;;;;;15.18;65.51;102063.84;6185369;23;20072;-76
2022/09/01 00:16:45;;;;;;;9.48;2.80;;;;;;;15.18;65.29;102058.63;6185300;23;20327;-76
2022/09/01 00:19:11;;;;;;;5.15;2.50;;;;;;;15.20;65.62;102064.56;6185069;23;20012;-76
2022/09/01 00:21:40;;;;;;;8.25;2.67;;;;;;;15.16;65.82;102059.69;6185173;23;20037;-76
2022/09/01 00:24:07;;;;;;;6.78;2.75;;;;;;;15.16;65.96;102057.06;6184905;23;20032;-76
2022/09/01 00:26:33;;;;;;;10.57;2.38;;;;;;;15.14;66.13;102054.56;6185090;23;20009;-75
2022/09/01 00:28:59;;;;;;;5.05;2.40;;;;;;;15.09;66.46;102046.19;6182488;23;20009;-82
2022/09/01 00:31:25;;;;;;;8.88;2.80;;;;;;;15.07;66.81;102068.06;6184225;23;20024;-83
2022/09/01 00:33:51;;;;;;;4.55;2.47;;;;;;;14.92;67.06;102043.81;6185343;23;20054;-83
2022/09/01 00:36:18;;;;;;;6.72;2.40;;;;;;;14.97;67.61;102059.97;6184848;23;20005;-81
2022/09/01 00:38:43;;;;;;;6.60;2.58;;;;;;;14.92;67.84;102057.66;6185556;23;20009;-82
2022/09/01 00:41:08;;;;;;;9.27;2.63;;;;;;;14.82;68.05;102059.16;6185301;23;20024;-82
2022/09/01 00:43:38;;;;;;;5.95;2.75;;;;;;;14.84;68.48;102064.25;6185242;23;20005;-83
2022/09/01 00:46:06;;;;;;;5.07;2.70;;;;;;;14.81;68.50;102059.25;6184664;23;20017;-82
2022/09/01 00:48:32;;;;;;;8.35;3.10;;;;;;;14.77;68.77;102055.16;6184896;23;20726;-83
2022/09/01 00:50:58;;;;;;;7.20;2.67;;;;;;;14.71;69.37;102061.56;6184750;23;20075;-78
2022/09/01 00:53:23;;;;;;;5.55;2.80;;;;;;;14.69;69.31;102057.41;6184741;23;20028;-76
2022/09/01 00:55:49;;;;;;;6.00;2.47;;;;;;;14.66;69.75;102049.78;6185192;23;20000;-78
2022/09/01 00:58:15;;;;;;;4.85;2.83;;;;;;;14.51;70.11;102038.53;6184908;23;20001;-77
2022/09/01 01:00:40;;;;;;;5.38;2.75;;;;;;;14.55;70.53;102055.59;6184848;23;20012;-83
2022/09/01 01:03:09;;;;;;;6.25;2.45;;;;;;;14.41;70.58;102046.00;6185067;23;20001;-82
2022/09/01 01:05:39;;;;;;;6.55;2.63;;;;;;;14.26;71.03;102023.56;6184758;23;20059;-83
2022/09/01 01:08:07;;;;;;;8.43;2.85;;;;;;;14.25;71.00;102025.28;6185049;23;20309;-83
2022/09/01 01:10:36;;;;;;;6.10;3.20;;;;;;;14.41;71.24;102053.81;6184976;23;20005;-83
2022/09/01 01:13:07;;;;;;;8.73;3.08;;;;;;;14.35;71.54;102046.38;6185054;23;20013;-84
2022/09/01 01:15:33;;;;;;;8.40;2.90;;;;;;;14.35;71.79;102047.22;6185663;23;20036;-83
2022/09/01 01:17:58;;;;;;;4.75;2.58;;;;;;;14.33;71.90;102050.81;6186577;23;20064;-83
2022/09/01 01:23:22;;;;;;;5.68;2.80;;;;;;;14.32;71.94;102047.41;6186570;23;20071;-83
2022/09/01 01:25:55;;;;;;;4.22;2.72;;;;;;;14.33;71.98;102045.63;6186638;23;20032;-79
2022/09/01 01:28:47;;;;;;;6.07;2.70;;;;;;;14.32;72.40;102047.41;6186413;23;20056;-83
2022/09/01 01:31:17;;;;;;;5.38;3.00;;;;;;;14.02;72.79;101997.25;6181482;23;20423;-83
2022/09/01 01:33:54;;;;;;;6.65;2.88;;;;;;;14.26;72.30;102036.56;6186519;23;20012;-83
2022/09/01 01:36:24;;;;;;;9.75;3.15;;;;;;;14.30;72.73;102048.41;6186424;23;20312;-82
2022/09/01 01:38:51;;;;;;;7.77;3.20;;;;;;;14.31;72.74;102050.09;6184777;23;20001;-83
2022/09/01 01:41:18;;;;;;;5.68;2.80;;;;;;;14.30;72.87;102049.25;6186715;23;20001;-83
2022/09/01 01:43:45;;;;;;;7.45;3.67;;;;;;;14.14;73.15;102032.06;6187011;23;20128;-83
2022/09/01 01:46:13;;;;;;;4.75;2.83;;;;;;;14.09;73.11;102026.31;6186459;23;20013;-83
2022/09/01 01:48:41;;;;;;;8.40;3.20;;;;;;;14.23;73.49;102044.50;6186381;23;20009;-83
2022/09/01 01:51:10;;;;;;;7.00;3.90;;;;;;;14.23;73.45;102047.09;6185465;23;20005;-83
2022/09/01 01:53:36;;;;;;;4.75;3.30;;;;;;;14.15;73.53;102046.72;6186010;23;20001;-83
2022/09/01 01:56:02;;;;;;;7.53;3.20;;;;;;;14.16;73.74;102051.84;6184831;23;20001;-83
2022/09/01 01:58:29;;;;;;;4.78;3.10;;;;;;;14.16;73.95;102057.03;6186481;23;20112;-83
2022/09/01 02:00:55;;;;;;;5.50;3.08;;;;;;;14.15;73.86;102062.28;6186656;23;20005;-83
2022/09/01 02:03:27;;;;;;;8.90;3.60;;;;;;;14.11;74.53;102064.25;6186328;23;20080;-83
2022/09/01 02:05:54;;;;;;;5.20;3.22;;;;;;;14.10;74.44;102059.16;6186040;23;20008;-83
2022/09/01 02:08:21;;;;;;;6.10;3.30;;;;;;;14.06;74.46;102059.34;6186442;23;20031;-83
2022/09/01 02:10:51;;;;;;;6.82;2.72;;;;;;;14.03;74.62;102061.25;6186595;23;20001;-83
2022/09/01 02:13:19;;;;;;;6.85;3.17;;;;;;;13.99;74.83;102050.22;6186604;23;20005;-83
2022/09/01 02:15:53;;;;;;;7.25;2.92;;;;;;;13.85;74.74;102044.97;6186629;23;20009;-83
2022/09/01 02:18:47;;;;;;;7.22;3.20;;;;;;;13.84;75.24;102045.06;6186509;23;20001;-82
2022/09/01 02:21:18;;;;;;;6.75;2.83;;;;;;;13.87;75.52;102061.31;6094615;23;20470;-83
2022/09/01 02:23:46;;;;;;;7.35;3.60;;;;;;;13.89;75.33;102064.66;6095247;23;20006;-83
2022/09/01 02:26:12;;;;;;;6.40;3.53;;;;;;;13.85;75.57;102065.72;6094977;23;20017;-76
2022/09/01 02:28:41;;;;;;;6.72;3.33;;;;;;;13.81;75.83;102056.47;6095056;23;20010;-77
2022/09/01 02:31:07;;;;;;;7.05;3.22;;;;;;;13.63;76.01;102028.94;6094989;23;20006;-76
2022/09/01 02:33:35;;;;;;;5.68;3.03;;;;;;;13.80;76.01;102057.38;6094641;23;20412;-76
2022/09/01 02:36:07;;;;;;;6.10;3.75;;;;;;;13.72;76.21;102049.19;6095046;23;20089;-76
2022/09/01 02:38:32;;;;;;;8.85;3.63;;;;;;;13.52;76.32;102028.72;6094616;23;20037;-82
2022/09/01 02:41:02;;;;;;;6.32;3.65;;;;;;;13.65;76.59;102053.03;6095112;23;20006;-82
2022/09/01 02:43:28;;;;;;;7.80;3.58;;;;;;;13.62;76.79;102046.28;6094819;23;20014;-81
2022/09/01 02:45:59;;;;;;;7.40;3.20;;;;;;;13.57;76.97;102055.22;6094677;23;20089;-83
2022/09/01 02:48:40;;;;;;;9.05;3.47;;;;;;;13.46;76.28;102045.44;6094735;23;20391;-81
2022/09/01 02:51:08;;;;;;;10.43;3.50;;;;;;;13.42;77.38;102041.38;6094883;23;20010;-78
2022/09/01 02:53:34;;;;;;;8.02;3.63;;;;;;;13.44;77.47;102050.72;6094460;23;20010;-81
2022/09/01 02:56:02;;;;;;;6.63;3.63;;;;;;;13.40;77.84;102046.66;6094714;23;20007;-82
2022/09/01 02:58:31;;;;;;;6.65;3.40;;;;;;;13.21;77.94;102030.41;6152971;23;20305;-83
2022/09/01 03:00:57;;;;;;;5.60;3.80;;;;;;;13.13;77.86;102014.41;6185642;23;20005;-83
2022/09/01 03:03:23;;;;;;;8.57;3.60;;;;;;;13.16;78.43;102024.59;6185573;23;20135;-83
2022/09/01 03:05:55;;;;;;;6.30;3.30;;;;;;;13.04;78.70;102020.09;6185665;23;20442;-77
2022/09/01 03:08:23;;;;;;;6.38;3.58;;;;;;;13.16;78.90;102048.78;6185660;23;20036;-83
2022/09/01 03:10:52;;;;;;;4.75;3.42;;;;;;;13.19;78.54;102047.84;6185489;23;20008;-83
2022/09/01 03:13:20;;;;;;;6.00;3.70;;;;;;;13.08;78.97;102032.81;6185629;23;20478;-82
2022/09/01 03:15:46;;;;;;;5.93;3.83;;;;;;;13.05;78.98;102038.16;6185557;23;20005;-81
2022/09/01 03:18:13;;;;;;;6.32;3.70;;;;;;;12.93;79.30;102028.44;6185577;23;20079;-83
2022/09/01 03:20:42;;;;;;;6.43;3.42;;;;;;;12.98;79.26;102038.56;6185615;23;20001;-80
2022/09/01 03:23:11;;;;;;;8.07;4.15;;;;;;;12.97;79.76;102036.88;6185336;23;20009;-83
2022/09/01 03:25:37;;;;;;;7.45;3.78;;;;;;;12.97;79.79;102036.88;6185522;23;20005;-82
2022/09/01 03:28:04;;;;;;;8.45;3.72;;;;;;;12.91;79.92;102041.50;6185656;23;20008;-83
2022/09/01 03:30:31;;;;;;;6.50;3.40;;;;;;;12.84;80.32;102044.50;6185616;23;20028;-83
2022/09/01 03:32:58;;;;;;;5.90;3.70;;;;;;;12.75;80.60;102032.84;6185649;23;20075;-79
2022/09/01 03:35:25;;;;;;;7.00;3.63;;;;;;;12.63;80.65;102021.38;6185287;23;20005;-82
2022/09/01 03:37:51;;;;;;;10.38;3.95;;;;;;;12.73;80.30;102026.91;6185268;23;20348;-80
2022/09/01 03:40:17;;;;;;;8.88;3.75;;;;;;;12.70;80.64;102032.28;6185420;23;20001;-82
2022/09/01 03:42:43;;;;;;;6.55;4.10;;;;;;;12.73;80.72;102034.69;6185554;23;20001;-82
2022/09/01 03:45:11;;;;;;;7.40;4.20;;;;;;;12.71;80.49;102038.28;6185031;23;20020;-80
2022/09/01 03:47:40;;;;;;;7.72;4.20;;;;;;;12.70;80.82;102042.63;6185448;23;20005;-80
2022/09/01 03:50:16;;;;;;;6.57;3.50;;;;;;;12.70;80.70;102045.22;6185222;23;20084;-78
2022/09/01 03:52:43;;;;;;;9.25;4.03;;;;;;;12.69;80.63;102042.72;6184970;23;20016;-80
2022/09/01 03:55:08;;;;;;;8.30;3.72;;;;;;;12.61;81.27;102037.94;6185152;23;20085;-80
2022/09/01 03:57:36;;;;;;;9.02;4.68;;;;;;;12.62;80.79;102035.25;6185242;23;20076;-81
2022/09/01 04:00:03;;;;;;;7.00;4.05;;;;;;;12.51;81.16;102034.97;6185242;23;20005;-81
2022/09/01 04:02:29;;;;;;;8.65;4.43;;;;;;;12.58;80.68;102035.47;6185293;23;20023;-83
2022/09/01 04:04:54;;;;;;;11.80;4.50;;;;;;;12.43;81.08;102018.16;6185228;23;20035;-80
2022/09/01 04:07:20;;;;;;;8.35;4.07;;;;;;;12.40;81.18;102029.53;6185233;23;20370;-81
2022/09/01 04:09:45;;;;;;;10.23;4.55;;;;;;;12.21;80.87;101989.94;6185124;23;20005;-83
2022/09/01 04:12:12;;;;;;;9.25;3.55;;;;;;;12.42;81.30;102026.84;6183176;23;20088;-81
2022/09/01 04:14:37;;;;;;;7.78;4.20;;;;;;;12.41;80.79;102032.94;6185076;23;20083;-82
2022/09/01 04:19:47;;;;;;;7.35;4.20;;;;;;;12.34;80.93;102035.00;6185156;23;20020;-81
2022/09/01 04:22:16;;;;;;;7.57;4.15;;;;;;;12.33;80.88;102033.34;6185066;23;20005;-81
2022/09/01 04:24:44;;;;;;;7.60;4.13;;;;;;;12.32;80.79;102034.25;6184758;23;20009;-83
2022/09/01 04:27:09;;;;;;;7.00;4.43;;;;;;;12.31;81.02;102035.16;6184933;23;20032;-81
2022/09/01 04:29:35;;;;;;;6.55;3.80;;;;;;;12.24;81.16;102036.38;6182936;23;20028;-81
2022/09/01 04:32:05;;;;;;;10.00;4.50;;;;;;;12.24;80.74;102039.81;6184368;23;20016;-81
2022/09/01 04:34:36;;;;;;;8.82;4.40;;;;;;;12.23;80.81;102032.97;6184921;23;20080;-83
2022/09/01 04:37:11;;;;;;;8.75;4.30;;;;;;;12.06;80.60;102014.84;6184953;23;20000;-82
2022/09/01 04:39:38;;;;;;;12.35;3.88;;;;;;;12.20;80.67;102038.31;6184532;23;20001;-82
2022/09/01 04:42:05;;;;;;;8.60;4.32;;;;;;;12.13;80.41;102023.16;6184901;23;20001;-82
2022/09/01 04:44:30;;;;;;;7.07;4.43;;;;;;;12.17;80.71;102038.44;6184900;23;19997;-82
2022/09/01 04:46:55;;;;;;;8.32;4.40;;;;;;;12.17;79.90;102028.09;6184678;23;20088;-83
2022/09/01 04:49:25;;;;;;;7.80;4.22;;;;;;;12.22;79.65;102040.81;6185181;23;20016;-81
2022/09/01 04:51:51;;;;;;;8.55;4.40;;;;;;;12.20;79.78;102037.47;6187165;23;20061;-83
2022/09/01 04:54:18;;;;;;;8.95;4.35;;;;;;;12.14;79.58;102028.25;6186533;23;20088;-83
2022/09/01 04:56:48;;;;;;;9.38;4.30;;;;;;;12.22;79.12;102036.47;6184812;23;20343;-83
2022/09/01 04:59:14;;;;;;;7.73;3.87;;;;;;;12.24;78.88;102033.81;6187239;23;20052;-82
2022/09/01 05:01:44;;;;;;;6.93;4.15;;;;;;;12.10;79.09;102018.97;6187194;23;20005;-80
2022/09/01 05:04:16;;;;;;;7.30;4.32;;;;;;;12.25;78.93;102038.91;6187153;23;20040;-82
2022/09/01 05:06:44;;;;;;;8.23;3.95;;;;;;;12.29;78.44;102045.63;6186714;23;20039;-80
2022/09/01 05:09:11;;;;;;;8.73;3.97;;;;;;;12.22;78.63;102033.88;6186520;23;20005;-83
2022/09/01 05:11:39;;;;;;;7.18;3.85;;;;;;;12.28;78.66;102041.31;6186737;23;20002;-82
2022/09/01 05:14:05;;;;;;;9.43;4.40;;;;;;;12.32;78.25;102042.03;6186871;23;20056;-82
2022/09/01 05:16:33;;;;;;;7.55;3.95;;;;;;;12.31;78.27;102046.38;6186667;23;20015;-83
2022/09/01 05:19:00;;;;;;;8.88;4.22;;;;;;;12.31;77.93;102036.00;6186605;23;20423;-83
2022/09/01 05:21:27;;;;;;;7.60;4.30;;;;;;;12.38;78.01;102044.28;6184530;23;20033;-89
2022/09/01 05:23:59;;;;;;;9.50;4.07;;;;;;;12.40;78.44;102049.41;6186307;23;19997;-89
2022/09/01 05:26:28;;;;;;;9.70;4.00;;;;;;;12.47;77.82;102043.81;6186848;23;20001;-90
2022/09/01 05:28:57;;;;;;;7.88;4.03;;;;;;;12.52;77.38;102044.44;6186960;23;20300;-90
2022/09/01 05:31:26;;;;;;;10.48;4.63;;;;;;;12.49;76.75;102030.81;6186614;23;19997;-83
2022/09/01 05:33:52;;;;;;;16.75;5.03;;;;;;;12.29;76.76;101987.78;6186445;23;20009;-88
2022/09/01 05:36:21;;;;;;;12.68;4.32;;;;;;;12.66;76.24;102048.88;6186465;23;20063;-87
2022/09/01 05:38:48;;;;;;;7.28;3.67;;;;;;;12.54;76.87;102028.78;6186607;23;20012;-85
2022/09/01 05:41:16;;;;;;;9.77;4.45;;;;;;;12.73;76.03;102046.81;6186340;23;20012;-85
2022/09/01 05:43:45;;;;;;;8.88;4.15;;;;;;;12.70;76.03;102041.81;6186501;23;20024;-82
2022/09/01 05:46:15;;;;;;;7.70;4.50;;;;;;;12.72;76.37;102042.56;6186211;23;20095;-86
2022/09/01 05:48:42;;;;;;;12.30;4.72;;;;;;;12.74;76.23;102040.72;6185322;23;20005;-80
2022/09/01 05:51:09;;;;;;;13.70;5.07;;;;;;;12.85;75.69;102057.38;6186243;23;20028;-84
2022/09/01 05:53:34;;;;;;;8.50;5.10;;;;;;;12.90;75.51;102057.97;6186534;23;20389;-89
2022/09/01 05:56:05;;;;;;;8.65;4.68;;;;;;;12.81;76.29;102037.72;6186198;23;20032;-85
2022/09/01 05:58:32;;;;;;;9.53;4.73;;;;;;;12.80;75.01;102027.44;6186310;23;20001;-84
2022/09/01 06:00:58;;;;;;;12.00;5.47;;;;;;;13.18;74.29;102049.56;6185162;23;20005;-81
2022/09/01 06:03:26;;;;;;;6.95;4.40;;;;;;;13.45;73.31;102056.75;6185949;23;20423;-82
2022/09/01 06:05:53;;;;;;;8.73;4.60;;;;;;;13.49;73.15;102056.53;6187029;23;20009;-77
2022/09/01 06:08:21;;;;;;;9.88;4.38;;;;;;;13.58;73.38;102047.38;6186575;23;20001;-82
2022/09/01 06:10:49;;;;;;;9.02;4.57;;;;;;;14.33;70.89;102051.66;6186286;23;20008;-89
2022/09/01 06:13:16;;;;;;;12.45;4.63;;;;;;;15.31;67.98;102057.84;6185870;23;20104;-82
2022/09/01 06:15:45;;;;;;;10.45;4.15;;;;;;;15.52;65.53;102027.00;6186221;23;20012;-87
2022/09/01 06:18:12;;;;;;;9.27;4.38;;;;;;;15.96;64.09;102058.84;6186074;23;20005;-83
2022/09/01 06:20:42;;;;;;;9.25;4.00;;;;;;;16.80;62.29;102044.47;6186617;23;20072;-84
2022/09/01 06:23:08;;;;;;;8.23;4.20;;;;;;;17.70;58.60;102027.59;6184461;23;20004;-84
2022/09/01 06:25:38;;;;;;;6.57;3.70;;;;;;;18.96;56.07;102044.97;6185964;23;20076;-83
2022/09/01 06:28:04;;;;;;;7.07;3.63;;;;;;;20.06;52.70;102047.34;6184588;23;20001;-85
2022/09/01 06:30:31;;;;;;;8.32;3.55;;;;;;;20.83;49.22;102057.38;6185954;23;20005;-84
2022/09/01 06:33:04;;;;;;;7.03;3.03;;;;;;;21.21;48.09;102019.88;6185461;23;20296;-82
2022/09/01 06:35:31;;;;;;;9.60;3.63;;;;;;;21.78;46.19;102052.41;6185977;23;20051;-84
2022/09/01 06:37:57;;;;;;;9.13;3.35;;;;;;;22.00;46.12;102020.53;6184127;23;20001;-84
2022/09/01 06:40:24;;;;;;;10.50;3.22;;;;;;;22.33;44.37;102011.34;6185896;23;20055;-83
2022/09/01 06:42:51;;;;;;;6.10;2.70;;;;;;;23.15;42.87;102055.28;6186396;23;20019;-83
2022/09/01 06:45:19;;;;;;;7.70;2.78;;;;;;;22.91;41.80;102023.44;6180894;23;20013;-84
2022/09/01 06:47:46;;;;;;;6.93;2.83;;;;;;;22.82;41.84;102027.75;6185609;23;20014;-85
2022/09/01 06:50:14;;;;;;;9.13;3.50;;;;;;;22.87;41.90;102033.41;6185361;23;20011;-83
2022/09/01 06:52:41;;;;;;;12.48;3.17;;;;;;;22.65;42.37;102043.50;6186037;23;20001;-85
2022/09/01 06:55:09;;;;;;;9.10;2.72;;;;;;;23.02;41.86;102065.38;6185683;23;20005;-86
2022/09/01 06:57:36;;;;;;;8.63;2.42;;;;;;;23.74;41.17;102064.44;6186210;23;20001;-85
2022/09/01 07:00:06;;;;;;;9.00;2.90;;;;;;;23.87;40.48;102060.56;6185560;23;20031;-83
2022/09/01 07:02:32;;;;;;;8.75;2.90;;;;;;;23.93;39.74;102039.69;6186057;23;20331;-82
2022/09/01 07:04:58;;;;;;;6.72;3.00;;;;;;;23.57;39.44;102043.31;6185792;23;20085;-83
2022/09/01 07:07:26;;;;;;;8.43;3.17;;;;;;;22.08;41.64;102013.78;6185819;23;20084;-83
2022/09/01 07:09:54;;;;;;;7.13;3.28;;;;;;;20.72;44.99;102074.06;6186031;23;20004;-83
2022/09/01 07:12:22;;;;;;;10.90;3.33;;;;;;;19.46;48.83;102075.78;6185420;23;20001;-80
2022/09/01 07:14:48;;;;;;;8.25;3.20;;;;;;;18.24;51.05;102025.22;6182647;23;20050;-85
2022/09/01 07:17:14;;;;;;;6.60;2.85;;;;;;;17.69;53.51;102010.19;6185573;23;20009;-78
2022/09/01 07:19:40;;;;;;;8.13;3.30;;;;;;;17.91;54.29;102088.72;6185868;23;20327;-83
2022/09/01 07:22:05;;;;;;;7.57;3.67;;;;;;;17.74;55.37;102083.88;6185840;23;20008;-82
2022/09/01 07:24:32;;;;;;;9.38;3.25;;;;;;;17.72;57.26;102084.00;6183350;23;20423;-80
2022/09/01 07:26:57;;;;;;;9.38;4.00;;;;;;;17.70;55.97;102083.28;6185372;23;20001;-82
2022/09/01 07:29:24;;;;;;;8.85;3.42;;;;;;;17.64;56.92;102067.19;6185172;23;20036;-84
2022/09/01 07:31:54;;;;;;;9.15;3.70;;;;;;;17.57;56.45;102064.19;6185545;23;20005;-82
2022/09/01 07:34:20;;;;;;;10.15;3.67;;;;;;;17.46;56.39;102054.50;6185337;23;20517;-84
2022/09/01 07:36:46;;;;;;;9.07;3.58;;;;;;;17.41;57.08;102046.19;6185749;23;20300;-84
2022/09/01 07:39:14;;;;;;;10.80;3.53;;;;;;;16.89;56.91;101961.19;6157788;23;20013;-81
2022/09/01 07:41:43;;;;;;;7.68;3.70;;;;;;;17.22;58.14;101995.44;6185412;23;20032;-81
2022/09/01 07:44:12;;;;;;;16.40;4.05;;;;;;;17.82;58.51;102073.72;6185017;23;20001;-81
2022/09/01 07:46:38;;;;;;;6.43;3.25;;;;;;;17.51;57.40;102008.97;6185187;23;20013;-83
2022/09/01 07:49:04;;;;;;;9.82;4.15;;;;;;;17.69;56.79;102041.53;6185665;23;20005;-83
2022/09/01 07:51:35;;;;;;;9.30;3.95;;;;;;;17.98;57.44;102084.69;6185427;23;20001;-83
2022/09/01 07:54:03;;;;;;;7.00;3.95;;;;;;;18.04;56.85;102078.19;6183149;23;20129;-82
2022/09/01 08:10:05;;;;;;;8.20;3.90;;;;;;;18.55;56.59;102081.22;6093315;23;20142;-89
2022/09/01 08:12:31;;;;;;;7.75;3.97;;;;;;;18.48;56.07;102047.81;6083877;23;20089;-81
2022/09/01 08:14:56;;;;;;;8.50;4.30;;;;;;;18.57;56.31;102053.16;6093849;23;20037;-85
2022/09/01 08:17:25;;;;;;;10.80;3.97;;;;;;;18.80;55.00;102082.00;6094448;23;20472;-80
2022/09/01 08:20:11;;;;;;;8.57;3.40;;;;;;;18.87;55.58;102088.41;6094081;23;20013;-83
2022/09/01 08:26:17;;;;;;;6.85;3.80;;;;;;;18.97;54.74;102089.34;6093534;23;20065;-86
2022/09/01 08:28:53;;;;;;;9.27;3.72;;;;;;;18.96;53.92;102071.97;6093586;23;20010;-84
2022/09/01 08:31:22;;;;;;;7.70;3.58;;;;;;;18.01;54.05;101903.28;6093810;23;20433;-85
2022/09/01 08:33:54;;;;;;;6.93;3.60;;;;;;;18.42;53.79;101954.97;6069162;23;20087;-88
2022/09/01 08:36:20;;;;;;;6.38;3.38;;;;;;;19.30;53.64;102087.66;6129793;23;20013;-86
2022/09/01 08:47:56;;;;;;;7.78;3.17;;;;;;;19.69;53.26;102081.00;6125264;23;20033;-82
2022/09/01 08:50:22;;;;;;;7.83;3.13;;;;;;;19.79;53.09;102083.72;6125587;23;20436;-83
2022/09/01 08:52:57;;;;;;;12.88;3.50;;;;;;;19.86;53.21;102087.47;6125386;23;20013;-86
2022/09/01 08:55:30;;;;;;;8.55;3.50;;;;;;;19.91;51.75;102082.69;6125135;23;20492;-85
2022/09/01 08:57:56;;;;;;;10.35;3.85;;;;;;;19.83;52.39;102061.53;6123619;23;20006;-82
2022/09/01 09:00:25;;;;;;;8.93;3.72;;;;;;;19.96;52.24;102075.25;6125524;23;20009;-80
2022/09/01 09:03:11;;;;;;;9.32;3.20;;;;;;;20.08;52.61;102086.56;6125147;23;20002;-81
2022/09/01 09:05:58;;;;;;;11.07;4.07;;;;;;;20.09;52.17;102081.19;6125591;23;20389;-81
2022/09/01 09:08:31;;;;;;;9.57;4.18;;;;;;;20.00;51.79;102059.16;6125175;23;20006;-82
2022/09/01 09:11:05;;;;;;;10.25;3.63;;;;;;;20.16;51.37;102074.47;6099718;23;20310;-81
2022/09/01 09:13:40;;;;;;;8.38;3.65;;;;;;;20.22;51.63;102071.31;6125043;23;20337;-80
2022/09/01 09:16:11;;;;;;;6.88;3.40;;;;;;;20.29;51.15;102071.63;6125649;23;20065;-82
2022/09/01 09:18:58;;;;;;;8.85;3.85;;;;;;;20.30;51.73;102066.25;6125528;23;20085;-82
2022/09/01 09:21:42;;;;;;;6.90;3.63;;;;;;;20.42;50.75;102071.41;6125072;23;20026;-79
2022/09/01 09:24:28;;;;;;;8.75;3.30;;;;;;;20.47;51.01;102077.97;6125474;23;20332;-79
2022/09/01 09:26:58;;;;;;;10.45;3.55;;;;;;;20.56;50.73;102058.81;6125317;23;20002;-80
2022/09/01 09:29:25;;;;;;;8.07;3.40;;;;;;;20.70;50.16;102064.69;6124864;23;20077;-80
2022/09/01 09:32:06;;;;;;;5.93;3.20;;;;;;;20.78;48.84;102056.97;6125373;23;20241;-81
2022/09/01 09:34:31;;;;;;;;;;;;;;;20.80;50.03;102060.28;6125362;23;20006;-80
2022/09/01 09:37:16;;;;;;;10.80;3.30;;;;;;;20.82;48.92;102055.72;6126118;23;19909;-77
2022/09/01 09:39:41;;;;;;;6.38;2.58;;;;;;;21.00;48.62;102046.25;6126792;23;20077;-79
2022/09/01 09:42:11;;;;;;;8.10;3.00;;;;;;;21.14;48.52;102056.38;6126989;23;20048;-78
2022/09/01 09:44:51;;;;;;;10.70;2.92;;;;;;;21.22;49.35;102047.78;6126698;23;20013;-78
2022/09/01 09:47:35;;;;;;;9.10;2.73;;;;;;;21.28;48.46;102038.59;6126932;23;20344;-79
2022/09/01 09:50:16;;;;;;;6.43;2.88;;;;;;;21.39;46.92;102041.09;6126979;23;20596;-77
2022/09/01 09:52:45;;;;;;;4.80;2.53;;;;;;;21.40;45.31;102035.69;6127187;23;20384;-78
2022/09/01 09:55:24;;;;;;;6.88;2.50;;;;;;;21.45;46.45;102033.50;6126965;23;20085;-78
2022/09/01 09:57:53;;;;;;;5.95;2.60;;;;;;;21.32;44.34;102005.81;6127247;23;20006;-82
2022/09/01 10:00:18;;;;;;;8.52;2.17;;;;;;;21.50;44.08;102040.94;6126449;23;20021;-76
2022/09/01 10:02:45;;;;;;;6.93;2.22;;;;;;;21.42;44.00;102012.72;6126807;23;20328;-80
2022/09/01 10:05:22;;;;;;;5.07;1.98;;;;;;;21.60;44.59;102027.78;6126946;23;20014;-79
2022/09/01 10:07:48;;;;;;;7.00;2.25;;;;;;;21.73;44.66;102025.72;6100369;23;20016;-83
2022/09/01 10:10:37;;;;;;;4.00;1.85;;;;;;;21.84;43.97;102030.84;6126839;23;20002;-78
2022/09/01 10:13:04;;;;;;;6.82;1.98;;;;;;;21.99;42.32;102034.66;6126950;23;20010;-77
2022/09/01 10:15:32;;;;;;;9.02;2.25;;;;;;;21.97;42.51;102018.19;6126463;23;20002;-80
2022/09/01 10:18:05;;;;;;;7.85;1.88;;;;;;;22.07;41.49;102015.56;6100029;23;20336;-78
2022/09/01 10:20:33;;;;;;;6.53;1.90;;;;;;;22.04;41.72;102006.16;6126922;23;20049;-79
2022/09/01 10:23:00;;;;;;;3.90;1.52;;;;;;;22.15;41.69;102028.84;6101091;23;20014;-75
2022/09/01 10:25:31;;;;;;;4.30;1.65;;;;;;;22.07;40.14;102031.38;6126007;23;20010;-84
2022/09/01 10:28:09;;;;;;;7.10;1.48;;;;;;;21.91;41.06;102002.97;6128103;23;20002;-81
2022/09/01 10:30:41;;;;;;;4.13;1.30;;;;;;;21.97;38.82;102018.19;6127328;23;20006;-85
2022/09/01 10:33:07;;;;;;;4.28;1.70;;;;;;;21.95;39.44;102012.25;6127937;23;20052;-89
2022/09/01 10:35:36;;;;;;;3.55;1.70;;;;;;;22.08;39.39;102011.16;6127409;23;20437;-74
2022/09/01 10:38:13;;;;;;;4.35;1.55;;;;;;;22.11;38.59;102016.09;6126648;23;20013;-87
2022/09/01 10:41:05;;;;;;;5.88;1.65;;;;;;;22.21;39.40;102017.75;6127096;23;20075;-89
2022/09/01 10:43:34;;;;;;;5.05;1.50;;;;;;;22.29;39.24;102006.50;6127288;23;20016;-87
2022/09/01 10:46:25;;;;;;;5.05;1.55;;;;;;;22.37;38.94;102011.88;6128816;23;20017;-91
2022/09/01 10:48:56;;;;;;;4.63;1.70;;;;;;;22.34;39.20;101999.00;6107835;23;20042;-91
2022/09/01 10:51:21;;;;;;;5.70;1.70;;;;;;;22.50;38.54;102006.28;6133146;23;20005;-96
2022/09/01 10:53:57;;;;;;;8.57;2.03;;;;;;;22.40;38.20;102003.69;6137783;23;20023;-90
2022/09/01 10:56:35;;;;;;;5.80;1.60;;;;;;;22.44;38.45;102004.25;6129398;23;20234;-92
2022/09/01 10:59:04;;;;;;;3.28;1.48;;;;;;;22.34;38.17;102004.28;6128807;23;20331;-92
2022/09/01 11:01:41;;;;;;;4.95;1.90;;;;;;;22.40;38.65;102002.84;6134389;23;20058;-95
2022/09/01 11:04:28;;;;;;;6.85;2.00;;;;;;;22.35;38.42;101991.94;6128131;23;20002;-89
2022/09/01 11:06:53;;;;;;;7.22;1.65;;;;;;;22.47;37.94;101998.69;6011391;23;20386;-93
2022/09/01 11:09:32;;;;;;;3.92;1.50;;;;;;;22.57;38.89;101997.66;6012382;23;20012;-93
2022/09/01 11:12:27;;;;;;;4.05;1.48;;;;;;;22.49;36.85;101994.09;5987062;23;20443;-89
2022/09/01 11:15:15;;;;;;;3.90;1.30;;;;;;;22.47;37.77;101991.59;6008745;23;20015;-87
2022/09/01 11:17:50;;;;;;;3.25;1.30;;;;;;;22.65;37.51;101996.09;5961962;24;20013;-91
2022/09/01 11:20:38;;;;;;;4.47;1.35;;;;;;;22.77;37.19;101993.09;5959584;24;20008;-87
2022/09/01 11:23:11;;;;;;;6.13;2.13;;;;;;;22.78;36.32;101978.97;5963654;24;20017;-95
2022/09/01 11:25:49;;;;;;;7.68;1.40;;;;;;;22.72;35.80;101968.22;5954213;24;20110;-93
2022/09/01 11:28:14;;;;;;;3.03;1.38;;;;;;;22.80;35.56;101984.91;5953005;24;20017;-94
2022/09/01 11:31:13;;;;;;;5.00;1.25;;;;;;;22.85;36.06;101993.22;5952475;24;20012;-87
2022/09/01 11:33:57;;;;;;;3.50;1.30;;;;;;;22.84;35.17;101985.47;5952727;24;20024;-85
2022/09/01 11:36:55;;;;;;;4.18;1.63;;;;;;;22.88;35.62;101981.56;5952573;24;20012;-91
2022/09/01 11:39:38;;;;;;;4.32;1.70;;;;;;;22.77;36.68;101955.41;5822129;24;20462;-90
2022/09/01 11:42:13;;;;;;;3.60;1.42;;;;;;;22.86;35.35;101965.91;5844105;24;20023;-91
2022/09/01 11:45:00;;;;;;;5.10;1.50;;;;;;;22.94;36.02;101978.34;5904547;24;20501;-84
2022/09/01 11:47:37;;;;;;;3.00;1.05;;;;;;;22.92;34.77;101968.94;5952563;24;20016;-86
2022/09/01 11:50:16;;;;;;;6.07;1.33;;;;;;;22.94;34.44;101967.81;5952284;24;20366;-88
2022/09/01 11:52:50;;;;;;;3.17;1.30;;;;;;;22.93;34.59;101958.25;5950931;24;20012;-85
2022/09/01 11:55:30;;;;;;;3.03;1.23;;;;;;;22.69;34.42;101929.81;5975522;24;20012;-92
2022/09/01 11:57:57;;;;;;;3.20;1.40;;;;;;;22.78;35.35;101933.34;5981483;24;20013;-89
2022/09/01 12:00:26;;;;;;;4.65;1.17;;;;;;;22.95;35.21;101964.19;5956374;24;20040;-86
2022/09/01 12:02:53;;;;;;;4.28;1.20;;;;;;;22.93;33.29;101947.72;5980439;24;20020;-91
2022/09/01 12:05:29;;;;;;;2.95;1.10;;;;;;;22.92;33.07;101950.50;5980215;24;20027;-90
2022/09/01 12:07:55;;;;;;;3.55;1.05;;;;;;;22.99;32.60;101949.72;5980345;24;20394;-90
2022/09/01 12:10:30;;;;;;;4.15;1.23;;;;;;;23.09;33.27;101941.75;5980118;24;20359;-89